sensor_id;sensor_type;location;lat;lon;timestamp;P1;durP1;ratioP1;P2;durP2;ratioP2
16308;SDS011;8263;48.880;9.276;2023-02-15T00:01:38;148.30;;;136.82;;
16308;SDS011;8263;48.880;9.276;2023-02-15T00:04:05;147.65;;;136.55;;
16308;SDS011;8263;48.880;9.276;2023-02-15T00:06:33;148.13;;;136.98;;
16308;SDS011;8263;48.880;9.276;2023-02-15T00:08:59;150.73;;;139.15;;
16308;SDS011;8263;48.880;9.276;2023-02-15T00:11:26;149.75;;;137.02;;
16308;SDS011;8263;48.880;9.276;2023-02-15T00:14:15;148.45;;;137.20;;
16308;SDS011;8263;48.880;9.276;2023-02-15T00:16:42;149.73;;;138.13;;
16308;SDS011;8263;48.880;9.276;2023-02-15T00:19:09;148.85;;;137.55;;
16308;SDS011;8263;48.880;9.276;2023-02-15T00:21:37;149.38;;;138.10;;
16308;SDS011;8263;48.880;9.276;2023-02-15T00:24:05;149.85;;;138.52;;
16308;SDS011;8263;48.880;9.276;2023-02-15T00:26:32;149.88;;;138.50;;
16308;SDS011;8263;48.880;9.276;2023-02-15T00:28:59;149.02;;;137.77;;
16308;SDS011;8263;48.880;9.276;2023-02-15T00:31:25;149.55;;;138.10;;
16308;SDS011;8263;48.880;9.276;2023-02-15T00:33:52;148.13;;;136.95;;
16308;SDS011;8263;48.880;9.276;2023-02-15T00:36:18;149.00;;;137.70;;
16308;SDS011;8263;48.880;9.276;2023-02-15T00:38:46;150.43;;;138.90;;
16308;SDS011;8263;48.880;9.276;2023-02-15T00:41:13;150.90;;;139.43;;
16308;SDS011;8263;48.880;9.276;2023-02-15T00:43:39;147.93;;;136.77;;
16308;SDS011;8263;48.880;9.276;2023-02-15T00:46:05;148.50;;;137.30;;
16308;SDS011;8263;48.880;9.276;2023-02-15T00:48:32;149.02;;;137.80;;
16308;SDS011;8263;48.880;9.276;2023-02-15T00:50:59;149.40;;;138.05;;
16308;SDS011;8263;48.880;9.276;2023-02-15T00:53:26;151.32;;;139.40;;
16308;SDS011;8263;48.880;9.276;2023-02-15T00:55:54;148.77;;;137.50;;
16308;SDS011;8263;48.880;9.276;2023-02-15T00:58:20;150.45;;;138.95;;
16308;SDS011;8263;48.880;9.276;2023-02-15T01:00:47;149.77;;;138.50;;
16308;SDS011;8263;48.880;9.276;2023-02-15T01:03:14;150.23;;;138.80;;
16308;SDS011;8263;48.880;9.276;2023-02-15T01:05:40;150.07;;;138.55;;
16308;SDS011;8263;48.880;9.276;2023-02-15T01:08:06;150.80;;;138.90;;
16308;SDS011;8263;48.880;9.276;2023-02-15T01:10:33;149.70;;;138.30;;
16308;SDS011;8263;48.880;9.276;2023-02-15T01:13:01;147.70;;;136.60;;
16308;SDS011;8263;48.880;9.276;2023-02-15T01:15:28;150.90;;;139.48;;
16308;SDS011;8263;48.880;9.276;2023-02-15T01:17:55;149.05;;;137.80;;
16308;SDS011;8263;48.880;9.276;2023-02-15T01:20:22;151.18;;;139.75;;
16308;SDS011;8263;48.880;9.276;2023-02-15T01:22:49;151.63;;;140.13;;
16308;SDS011;8263;48.880;9.276;2023-02-15T01:25:15;149.27;;;137.93;;
16308;SDS011;8263;48.880;9.276;2023-02-15T01:27:42;150.63;;;138.95;;
16308;SDS011;8263;48.880;9.276;2023-02-15T01:30:10;150.32;;;138.98;;
16308;SDS011;8263;48.880;9.276;2023-02-15T01:32:37;151.73;;;140.05;;
16308;SDS011;8263;48.880;9.276;2023-02-15T01:35:03;151.20;;;139.40;;
16308;SDS011;8263;48.880;9.276;2023-02-15T01:37:30;151.15;;;139.65;;
16308;SDS011;8263;48.880;9.276;2023-02-15T01:39:57;151.95;;;140.15;;
16308;SDS011;8263;48.880;9.276;2023-02-15T01:42:25;151.05;;;139.40;;
16308;SDS011;8263;48.880;9.276;2023-02-15T01:44:54;148.77;;;137.38;;
16308;SDS011;8263;48.880;9.276;2023-02-15T01:47:23;151.98;;;140.45;;
16308;SDS011;8263;48.880;9.276;2023-02-15T01:49:54;151.13;;;139.52;;
16308;SDS011;8263;48.880;9.276;2023-02-15T01:52:24;151.07;;;139.55;;
16308;SDS011;8263;48.880;9.276;2023-02-15T01:54:51;150.88;;;139.35;;
16308;SDS011;8263;48.880;9.276;2023-02-15T01:57:18;150.15;;;138.77;;
16308;SDS011;8263;48.880;9.276;2023-02-15T01:59:46;150.88;;;139.23;;
16308;SDS011;8263;48.880;9.276;2023-02-15T02:02:14;151.70;;;140.10;;
16308;SDS011;8263;48.880;9.276;2023-02-15T02:04:43;151.88;;;140.05;;
16308;SDS011;8263;48.880;9.276;2023-02-15T02:07:12;151.70;;;140.10;;
16308;SDS011;8263;48.880;9.276;2023-02-15T02:09:39;151.60;;;139.90;;
16308;SDS011;8263;48.880;9.276;2023-02-15T02:12:05;150.95;;;139.43;;
16308;SDS011;8263;48.880;9.276;2023-02-15T02:14:32;151.73;;;140.07;;
16308;SDS011;8263;48.880;9.276;2023-02-15T02:17:01;150.77;;;139.27;;
16308;SDS011;8263;48.880;9.276;2023-02-15T02:19:37;151.80;;;140.15;;
16308;SDS011;8263;48.880;9.276;2023-02-15T02:22:22;152.25;;;140.55;;
16308;SDS011;8263;48.880;9.276;2023-02-15T02:25:00;152.02;;;140.07;;
16308;SDS011;8263;48.880;9.276;2023-02-15T02:27:32;152.63;;;140.82;;
16308;SDS011;8263;48.880;9.276;2023-02-15T02:32:53;152.35;;;140.75;;
16308;SDS011;8263;48.880;9.276;2023-02-15T02:35:26;151.27;;;139.57;;
16308;SDS011;8263;48.880;9.276;2023-02-15T02:37:56;150.32;;;138.90;;
16308;SDS011;8263;48.880;9.276;2023-02-15T02:40:30;151.85;;;140.15;;
16308;SDS011;8263;48.880;9.276;2023-02-15T02:42:59;153.85;;;142.07;;
16308;SDS011;8263;48.880;9.276;2023-02-15T02:45:28;150.95;;;139.43;;
16308;SDS011;8263;48.880;9.276;2023-02-15T02:47:59;152.73;;;141.05;;
16308;SDS011;8263;48.880;9.276;2023-02-15T02:50:27;152.60;;;140.98;;
16308;SDS011;8263;48.880;9.276;2023-02-15T02:52:55;151.40;;;139.82;;
16308;SDS011;8263;48.880;9.276;2023-02-15T02:55:22;151.52;;;139.95;;
16308;SDS011;8263;48.880;9.276;2023-02-15T02:57:52;151.80;;;140.18;;
16308;SDS011;8263;48.880;9.276;2023-02-15T03:00:19;153.15;;;141.38;;
16308;SDS011;8263;48.880;9.276;2023-02-15T03:02:47;152.95;;;141.25;;
16308;SDS011;8263;48.880;9.276;2023-02-15T03:05:18;152.80;;;141.13;;
16308;SDS011;8263;48.880;9.276;2023-02-15T03:07:46;150.52;;;139.05;;
16308;SDS011;8263;48.880;9.276;2023-02-15T03:10:13;153.10;;;141.30;;
16308;SDS011;8263;48.880;9.276;2023-02-15T03:12:39;151.05;;;139.52;;
16308;SDS011;8263;48.880;9.276;2023-02-15T03:15:08;152.38;;;140.70;;
16308;SDS011;8263;48.880;9.276;2023-02-15T03:17:36;151.23;;;139.40;;
16308;SDS011;8263;48.880;9.276;2023-02-15T03:20:04;151.43;;;139.73;;
16308;SDS011;8263;48.880;9.276;2023-02-15T03:22:35;150.57;;;139.13;;
16308;SDS011;8263;48.880;9.276;2023-02-15T03:25:04;152.35;;;140.70;;
16308;SDS011;8263;48.880;9.276;2023-02-15T03:27:33;151.00;;;139.50;;
16308;SDS011;8263;48.880;9.276;2023-02-15T03:30:01;151.45;;;139.70;;
16308;SDS011;8263;48.880;9.276;2023-02-15T03:32:28;151.77;;;140.15;;
16308;SDS011;8263;48.880;9.276;2023-02-15T03:34:55;152.27;;;140.48;;
16308;SDS011;8263;48.880;9.276;2023-02-15T03:37:23;152.68;;;140.88;;
16308;SDS011;8263;48.880;9.276;2023-02-15T03:39:54;151.98;;;140.38;;
16308;SDS011;8263;48.880;9.276;2023-02-15T03:42:22;152.35;;;140.75;;
16308;SDS011;8263;48.880;9.276;2023-02-15T03:44:51;151.48;;;139.98;;
16308;SDS011;8263;48.880;9.276;2023-02-15T03:47:20;150.13;;;138.75;;
16308;SDS011;8263;48.880;9.276;2023-02-15T03:49:49;152.27;;;140.65;;
16308;SDS011;8263;48.880;9.276;2023-02-15T03:52:16;152.20;;;140.57;;
16308;SDS011;8263;48.880;9.276;2023-02-15T03:54:43;150.68;;;139.23;;
16308;SDS011;8263;48.880;9.276;2023-02-15T03:57:15;151.45;;;139.88;;
16308;SDS011;8263;48.880;9.276;2023-02-15T04:00:00;152.13;;;140.52;;
16308;SDS011;8263;48.880;9.276;2023-02-15T04:02:47;149.73;;;138.38;;
16308;SDS011;8263;48.880;9.276;2023-02-15T04:05:18;151.50;;;139.82;;
16308;SDS011;8263;48.880;9.276;2023-02-15T04:07:45;151.43;;;139.82;;
16308;SDS011;8263;48.880;9.276;2023-02-15T04:10:11;151.60;;;140.05;;
16308;SDS011;8263;48.880;9.276;2023-02-15T04:12:57;151.90;;;140.10;;
16308;SDS011;8263;48.880;9.276;2023-02-15T04:15:23;153.07;;;141.38;;
16308;SDS011;8263;48.880;9.276;2023-02-15T04:18:07;152.73;;;141.02;;
16308;SDS011;8263;48.880;9.276;2023-02-15T04:20:33;152.32;;;140.68;;
16308;SDS011;8263;48.880;9.276;2023-02-15T04:23:17;150.77;;;139.25;;
16308;SDS011;8263;48.880;9.276;2023-02-15T04:26:02;150.00;;;138.63;;
16308;SDS011;8263;48.880;9.276;2023-02-15T04:28:30;151.38;;;139.88;;
16308;SDS011;8263;48.880;9.276;2023-02-15T04:30:56;152.57;;;140.90;;
16308;SDS011;8263;48.880;9.276;2023-02-15T04:33:23;151.95;;;140.23;;
16308;SDS011;8263;48.880;9.276;2023-02-15T04:35:49;151.85;;;140.23;;
16308;SDS011;8263;48.880;9.276;2023-02-15T04:38:16;150.55;;;139.07;;
16308;SDS011;8263;48.880;9.276;2023-02-15T04:40:42;152.40;;;140.75;;
16308;SDS011;8263;48.880;9.276;2023-02-15T04:43:08;151.35;;;139.75;;
16308;SDS011;8263;48.880;9.276;2023-02-15T04:45:36;151.68;;;140.13;;
16308;SDS011;8263;48.880;9.276;2023-02-15T04:48:03;153.25;;;141.30;;
16308;SDS011;8263;48.880;9.276;2023-02-15T04:50:29;152.45;;;140.55;;
16308;SDS011;8263;48.880;9.276;2023-02-15T04:52:55;153.05;;;141.35;;
16308;SDS011;8263;48.880;9.276;2023-02-15T04:55:22;150.98;;;139.48;;
16308;SDS011;8263;48.880;9.276;2023-02-15T04:57:48;151.45;;;139.95;;
16308;SDS011;8263;48.880;9.276;2023-02-15T05:00:15;152.75;;;140.98;;
16308;SDS011;8263;48.880;9.276;2023-02-15T05:02:43;151.45;;;139.90;;
16308;SDS011;8263;48.880;9.276;2023-02-15T05:05:09;150.45;;;139.05;;
16308;SDS011;8263;48.880;9.276;2023-02-15T05:07:37;152.18;;;140.57;;
16308;SDS011;8263;48.880;9.276;2023-02-15T05:10:04;151.27;;;139.77;;
16308;SDS011;8263;48.880;9.276;2023-02-15T05:12:31;152.07;;;140.48;;
16308;SDS011;8263;48.880;9.276;2023-02-15T05:14:57;152.25;;;140.60;;
16308;SDS011;8263;48.880;9.276;2023-02-15T05:17:24;152.35;;;140.70;;
16308;SDS011;8263;48.880;9.276;2023-02-15T05:19:51;151.35;;;139.85;;
16308;SDS011;8263;48.880;9.276;2023-02-15T05:22:18;153.35;;;141.25;;
16308;SDS011;8263;48.880;9.276;2023-02-15T05:24:44;152.90;;;141.20;;
16308;SDS011;8263;48.880;9.276;2023-02-15T05:27:43;151.77;;;140.18;;
16308;SDS011;8263;48.880;9.276;2023-02-15T05:30:27;151.32;;;139.70;;
16308;SDS011;8263;48.880;9.276;2023-02-15T05:32:53;151.88;;;140.05;;
16308;SDS011;8263;48.880;9.276;2023-02-15T05:35:21;154.02;;;142.23;;
16308;SDS011;8263;48.880;9.276;2023-02-15T05:37:47;152.52;;;140.88;;
16308;SDS011;8263;48.880;9.276;2023-02-15T05:40:14;151.32;;;139.82;;
16308;SDS011;8263;48.880;9.276;2023-02-15T05:42:40;149.80;;;138.43;;
16308;SDS011;8263;48.880;9.276;2023-02-15T05:45:06;152.30;;;140.68;;
16308;SDS011;8263;48.880;9.276;2023-02-15T05:47:33;154.02;;;142.18;;
16308;SDS011;8263;48.880;9.276;2023-02-15T05:49:59;152.13;;;140.48;;
16308;SDS011;8263;48.880;9.276;2023-02-15T05:52:27;150.32;;;138.93;;
16308;SDS011;8263;48.880;9.276;2023-02-15T05:54:53;151.88;;;140.30;;
16308;SDS011;8263;48.880;9.276;2023-02-15T05:57:20;152.93;;;141.23;;
16308;SDS011;8263;48.880;9.276;2023-02-15T05:59:46;151.60;;;139.77;;
16308;SDS011;8263;48.880;9.276;2023-02-15T06:02:12;153.98;;;141.80;;
16308;SDS011;8263;48.880;9.276;2023-02-15T06:04:39;153.02;;;141.30;;
16308;SDS011;8263;48.880;9.276;2023-02-15T06:07:05;152.18;;;140.50;;
16308;SDS011;8263;48.880;9.276;2023-02-15T06:09:33;151.43;;;139.88;;
16308;SDS011;8263;48.880;9.276;2023-02-15T06:11:59;150.18;;;138.68;;
16308;SDS011;8263;48.880;9.276;2023-02-15T06:14:25;151.27;;;139.70;;
16308;SDS011;8263;48.880;9.276;2023-02-15T06:16:52;151.77;;;140.20;;
16308;SDS011;8263;48.880;9.276;2023-02-15T06:19:18;152.73;;;141.02;;
16308;SDS011;8263;48.880;9.276;2023-02-15T06:21:46;150.60;;;139.05;;
16308;SDS011;8263;48.880;9.276;2023-02-15T06:24:12;153.20;;;141.48;;
16308;SDS011;8263;48.880;9.276;2023-02-15T06:26:40;151.75;;;140.18;;
16308;SDS011;8263;48.880;9.276;2023-02-15T06:29:06;152.93;;;141.23;;
16308;SDS011;8263;48.880;9.276;2023-02-15T06:31:33;152.02;;;140.15;;
16308;SDS011;8263;48.880;9.276;2023-02-15T06:33:59;152.70;;;140.95;;
16308;SDS011;8263;48.880;9.276;2023-02-15T06:36:26;152.38;;;140.73;;
16308;SDS011;8263;48.880;9.276;2023-02-15T06:38:53;152.57;;;140.88;;
16308;SDS011;8263;48.880;9.276;2023-02-15T06:41:19;153.75;;;141.80;;
16308;SDS011;8263;48.880;9.276;2023-02-15T06:43:47;154.32;;;142.48;;
16308;SDS011;8263;48.880;9.276;2023-02-15T06:46:14;153.40;;;141.60;;
16308;SDS011;8263;48.880;9.276;2023-02-15T06:48:40;153.20;;;141.50;;
16308;SDS011;8263;48.880;9.276;2023-02-15T06:51:07;152.90;;;141.20;;
16308;SDS011;8263;48.880;9.276;2023-02-15T06:53:33;152.48;;;140.85;;
16308;SDS011;8263;48.880;9.276;2023-02-15T06:56:00;153.30;;;141.55;;
16308;SDS011;8263;48.880;9.276;2023-02-15T06:58:31;152.20;;;140.52;;
16308;SDS011;8263;48.880;9.276;2023-02-15T07:00:59;151.38;;;139.75;;
16308;SDS011;8263;48.880;9.276;2023-02-15T07:03:25;152.73;;;140.98;;
16308;SDS011;8263;48.880;9.276;2023-02-15T07:05:54;152.63;;;140.88;;
16308;SDS011;8263;48.880;9.276;2023-02-15T07:08:20;152.15;;;140.55;;
16308;SDS011;8263;48.880;9.276;2023-02-15T07:10:46;151.93;;;140.32;;
16308;SDS011;8263;48.880;9.276;2023-02-15T07:13:14;152.23;;;140.63;;
16308;SDS011;8263;48.880;9.276;2023-02-15T07:15:39;152.10;;;140.48;;
16308;SDS011;8263;48.880;9.276;2023-02-15T07:18:07;152.77;;;141.07;;
16308;SDS011;8263;48.880;9.276;2023-02-15T07:20:34;152.30;;;140.55;;
16308;SDS011;8263;48.880;9.276;2023-02-15T07:23:01;154.10;;;142.23;;
16308;SDS011;8263;48.880;9.276;2023-02-15T07:25:27;152.13;;;140.48;;
16308;SDS011;8263;48.880;9.276;2023-02-15T07:27:55;150.27;;;138.88;;
16308;SDS011;8263;48.880;9.276;2023-02-15T07:30:21;151.88;;;140.27;;
16308;SDS011;8263;48.880;9.276;2023-02-15T07:32:48;151.35;;;139.68;;
16308;SDS011;8263;48.880;9.276;2023-02-15T07:35:33;153.25;;;141.38;;
16308;SDS011;8263;48.880;9.276;2023-02-15T07:38:00;153.32;;;141.18;;
16308;SDS011;8263;48.880;9.276;2023-02-15T07:40:26;152.95;;;141.18;;
16308;SDS011;8263;48.880;9.276;2023-02-15T07:42:52;152.38;;;140.68;;
16308;SDS011;8263;48.880;9.276;2023-02-15T07:45:19;153.95;;;142.05;;
16308;SDS011;8263;48.880;9.276;2023-02-15T07:47:46;152.25;;;140.65;;
16308;SDS011;8263;48.880;9.276;2023-02-15T07:50:12;153.18;;;141.43;;
16308;SDS011;8263;48.880;9.276;2023-02-15T07:52:40;152.63;;;140.93;;
16308;SDS011;8263;48.880;9.276;2023-02-15T07:55:06;152.60;;;140.93;;
16308;SDS011;8263;48.880;9.276;2023-02-15T07:57:33;152.65;;;140.95;;
16308;SDS011;8263;48.880;9.276;2023-02-15T08:00:00;152.38;;;140.70;;
16308;SDS011;8263;48.880;9.276;2023-02-15T08:02:26;152.60;;;140.88;;
16308;SDS011;8263;48.880;9.276;2023-02-15T08:04:53;153.00;;;141.20;;
16308;SDS011;8263;48.880;9.276;2023-02-15T08:07:20;152.18;;;140.35;;
16308;SDS011;8263;48.880;9.276;2023-02-15T08:09:48;152.70;;;141.02;;
16308;SDS011;8263;48.880;9.276;2023-02-15T08:12:14;153.27;;;141.43;;
16308;SDS011;8263;48.880;9.276;2023-02-15T08:14:40;155.65;;;143.50;;
16308;SDS011;8263;48.880;9.276;2023-02-15T08:17:07;154.30;;;142.32;;
16308;SDS011;8263;48.880;9.276;2023-02-15T08:19:33;152.05;;;140.32;;
16308;SDS011;8263;48.880;9.276;2023-02-15T08:22:01;154.63;;;142.73;;
16308;SDS011;8263;48.880;9.276;2023-02-15T08:24:28;155.10;;;143.10;;
16308;SDS011;8263;48.880;9.276;2023-02-15T08:26:56;152.20;;;140.57;;
16308;SDS011;8263;48.880;9.276;2023-02-15T08:29:23;153.30;;;141.52;;
16308;SDS011;8263;48.880;9.276;2023-02-15T08:31:52;153.48;;;141.45;;
16308;SDS011;8263;48.880;9.276;2023-02-15T08:34:19;152.70;;;140.85;;
16308;SDS011;8263;48.880;9.276;2023-02-15T08:36:46;151.88;;;140.27;;
16308;SDS011;8263;48.880;9.276;2023-02-15T08:39:13;152.68;;;140.98;;
16308;SDS011;8263;48.880;9.276;2023-02-15T08:41:41;150.70;;;139.25;;
16308;SDS011;8263;48.880;9.276;2023-02-15T08:44:11;152.55;;;140.85;;
16308;SDS011;8263;48.880;9.276;2023-02-15T08:46:39;153.23;;;141.40;;
16308;SDS011;8263;48.880;9.276;2023-02-15T08:49:06;153.55;;;141.73;;
16308;SDS011;8263;48.880;9.276;2023-02-15T08:51:33;152.85;;;141.15;;
16308;SDS011;8263;48.880;9.276;2023-02-15T08:54:01;153.48;;;141.45;;
16308;SDS011;8263;48.880;9.276;2023-02-15T08:56:28;152.65;;;140.95;;
16308;SDS011;8263;48.880;9.276;2023-02-15T08:58:55;153.02;;;141.30;;
16308;SDS011;8263;48.880;9.276;2023-02-15T09:01:24;154.18;;;142.30;;
16308;SDS011;8263;48.880;9.276;2023-02-15T09:03:51;152.10;;;140.48;;
16308;SDS011;8263;48.880;9.276;2023-02-15T09:06:18;153.80;;;141.95;;
16308;SDS011;8263;48.880;9.276;2023-02-15T09:08:45;154.48;;;142.57;;
16308;SDS011;8263;48.880;9.276;2023-02-15T09:11:12;153.23;;;141.38;;
16308;SDS011;8263;48.880;9.276;2023-02-15T09:13:41;151.00;;;139.50;;
16308;SDS011;8263;48.880;9.276;2023-02-15T09:16:09;151.88;;;140.23;;
16308;SDS011;8263;48.880;9.276;2023-02-15T09:18:37;153.23;;;141.48;;
16308;SDS011;8263;48.880;9.276;2023-02-15T09:21:05;151.15;;;139.60;;
16308;SDS011;8263;48.880;9.276;2023-02-15T09:23:32;154.63;;;142.68;;
16308;SDS011;8263;48.880;9.276;2023-02-15T09:26:01;151.65;;;140.05;;
16308;SDS011;8263;48.880;9.276;2023-02-15T09:28:28;152.00;;;140.40;;
16308;SDS011;8263;48.880;9.276;2023-02-15T09:30:54;152.73;;;141.02;;
16308;SDS011;8263;48.880;9.276;2023-02-15T09:33:21;152.65;;;140.93;;
16308;SDS011;8263;48.880;9.276;2023-02-15T09:35:51;152.30;;;140.70;;
16308;SDS011;8263;48.880;9.276;2023-02-15T09:38:17;152.70;;;141.02;;
16308;SDS011;8263;48.880;9.276;2023-02-15T09:40:47;151.05;;;139.55;;
16308;SDS011;8263;48.880;9.276;2023-02-15T09:43:20;151.38;;;139.80;;
16308;SDS011;8263;48.880;9.276;2023-02-15T09:46:10;153.35;;;141.52;;
16308;SDS011;8263;48.880;9.276;2023-02-15T09:48:38;152.43;;;140.52;;
16308;SDS011;8263;48.880;9.276;2023-02-15T09:51:12;153.70;;;141.88;;
16308;SDS011;8263;48.880;9.276;2023-02-15T09:53:46;151.05;;;139.55;;
16308;SDS011;8263;48.880;9.276;2023-02-15T09:56:19;151.23;;;139.57;;
16308;SDS011;8263;48.880;9.276;2023-02-15T09:58:50;152.18;;;140.50;;
16308;SDS011;8263;48.880;9.276;2023-02-15T10:01:21;151.60;;;140.07;;
16308;SDS011;8263;48.880;9.276;2023-02-15T10:03:54;151.85;;;140.15;;
16308;SDS011;8263;48.880;9.276;2023-02-15T10:06:28;151.63;;;140.05;;
16308;SDS011;8263;48.880;9.276;2023-02-15T10:11:39;152.38;;;140.75;;
16308;SDS011;8263;48.880;9.276;2023-02-15T10:14:18;152.27;;;140.63;;
16308;SDS011;8263;48.880;9.276;2023-02-15T10:16:52;151.13;;;139.63;;
16308;SDS011;8263;48.880;9.276;2023-02-15T10:19:23;148.38;;;137.18;;
16308;SDS011;8263;48.880;9.276;2023-02-15T10:21:57;152.15;;;140.55;;
16308;SDS011;8263;48.880;9.276;2023-02-15T10:24:38;151.90;;;140.30;;
16308;SDS011;8263;48.880;9.276;2023-02-15T10:27:06;154.05;;;141.88;;
16308;SDS011;8263;48.880;9.276;2023-02-15T10:29:35;153.57;;;141.60;;
16308;SDS011;8263;48.880;9.276;2023-02-15T10:32:05;151.57;;;139.98;;
16308;SDS011;8263;48.880;9.276;2023-02-15T10:34:35;153.38;;;141.57;;
16308;SDS011;8263;48.880;9.276;2023-02-15T10:39:48;150.68;;;139.07;;
16308;SDS011;8263;48.880;9.276;2023-02-15T10:42:20;151.90;;;140.40;;
16308;SDS011;8263;48.880;9.276;2023-02-15T10:44:55;152.15;;;140.23;;
16308;SDS011;8263;48.880;9.276;2023-02-15T10:47:31;150.55;;;138.85;;
16308;SDS011;8263;48.880;9.276;2023-02-15T10:52:43;150.07;;;138.70;;
16308;SDS011;8263;48.880;9.276;2023-02-15T10:55:18;151.48;;;139.73;;
16308;SDS011;8263;48.880;9.276;2023-02-15T10:57:50;148.73;;;137.52;;
16308;SDS011;8263;48.880;9.276;2023-02-15T11:00:18;150.73;;;139.30;;
16308;SDS011;8263;48.880;9.276;2023-02-15T11:02:54;148.23;;;136.75;;
16308;SDS011;8263;48.880;9.276;2023-02-15T11:05:27;150.82;;;139.32;;
16308;SDS011;8263;48.880;9.276;2023-02-15T11:07:57;150.60;;;139.02;;
16308;SDS011;8263;48.880;9.276;2023-02-15T11:10:28;150.45;;;138.80;;
16308;SDS011;8263;48.880;9.276;2023-02-15T11:12:56;149.05;;;137.65;;
16308;SDS011;8263;48.880;9.276;2023-02-15T11:15:25;147.57;;;136.32;;
16308;SDS011;8263;48.880;9.276;2023-02-15T11:17:55;151.30;;;139.38;;
16308;SDS011;8263;48.880;9.276;2023-02-15T11:20:24;148.90;;;137.45;;
16308;SDS011;8263;48.880;9.276;2023-02-15T11:22:51;147.68;;;136.60;;
16308;SDS011;8263;48.880;9.276;2023-02-15T11:25:19;152.18;;;140.07;;
16308;SDS011;8263;48.880;9.276;2023-02-15T11:27:49;146.10;;;135.15;;
16308;SDS011;8263;48.880;9.276;2023-02-15T11:30:18;148.77;;;137.57;;
16308;SDS011;8263;48.880;9.276;2023-02-15T11:32:45;147.77;;;136.52;;
16308;SDS011;8263;48.880;9.276;2023-02-15T11:35:17;148.00;;;136.70;;
16308;SDS011;8263;48.880;9.276;2023-02-15T11:37:46;145.75;;;134.85;;
16308;SDS011;8263;48.880;9.276;2023-02-15T11:40:15;148.00;;;136.70;;
16308;SDS011;8263;48.880;9.276;2023-02-15T11:42:43;147.57;;;136.35;;
16308;SDS011;8263;48.880;9.276;2023-02-15T11:45:16;150.63;;;138.55;;
16308;SDS011;8263;48.880;9.276;2023-02-15T11:47:45;145.73;;;134.55;;
16308;SDS011;8263;48.880;9.276;2023-02-15T11:50:12;146.43;;;135.13;;
16308;SDS011;8263;48.880;9.276;2023-02-15T11:52:39;146.20;;;135.18;;
16308;SDS011;8263;48.880;9.276;2023-02-15T11:55:09;149.52;;;137.85;;
16308;SDS011;8263;48.880;9.276;2023-02-15T11:57:38;147.35;;;136.00;;
16308;SDS011;8263;48.880;9.276;2023-02-15T12:00:09;144.23;;;133.38;;
16308;SDS011;8263;48.880;9.276;2023-02-15T12:02:38;145.90;;;134.27;;
16308;SDS011;8263;48.880;9.276;2023-02-15T12:05:06;146.50;;;135.15;;
16308;SDS011;8263;48.880;9.276;2023-02-15T12:07:36;145.88;;;134.77;;
16308;SDS011;8263;48.880;9.276;2023-02-15T12:10:04;144.75;;;133.48;;
16308;SDS011;8263;48.880;9.276;2023-02-15T12:12:32;145.95;;;134.93;;
16308;SDS011;8263;48.880;9.276;2023-02-15T12:15:00;145.60;;;134.43;;
16308;SDS011;8263;48.880;9.276;2023-02-15T12:17:27;148.10;;;136.38;;
16308;SDS011;8263;48.880;9.276;2023-02-15T12:19:56;143.38;;;132.50;;
16308;SDS011;8263;48.880;9.276;2023-02-15T12:22:25;145.35;;;134.02;;
16308;SDS011;8263;48.880;9.276;2023-02-15T12:24:52;144.57;;;133.60;;
16308;SDS011;8263;48.880;9.276;2023-02-15T12:27:20;144.18;;;133.30;;
16308;SDS011;8263;48.880;9.276;2023-02-15T12:29:48;142.70;;;131.70;;
16308;SDS011;8263;48.880;9.276;2023-02-15T12:32:18;143.05;;;132.02;;
16308;SDS011;8263;48.880;9.276;2023-02-15T12:34:45;143.68;;;132.88;;
16308;SDS011;8263;48.880;9.276;2023-02-15T12:37:16;142.75;;;131.70;;
16308;SDS011;8263;48.880;9.276;2023-02-15T12:39:51;142.38;;;131.63;;
16308;SDS011;8263;48.880;9.276;2023-02-15T12:42:17;144.15;;;132.93;;
16308;SDS011;8263;48.880;9.276;2023-02-15T12:44:52;143.80;;;132.73;;
16308;SDS011;8263;48.880;9.276;2023-02-15T12:47:19;141.88;;;131.27;;
16308;SDS011;8263;48.880;9.276;2023-02-15T12:50:04;141.00;;;130.20;;
16308;SDS011;8263;48.880;9.276;2023-02-15T12:52:34;142.98;;;131.75;;
16308;SDS011;8263;48.880;9.276;2023-02-15T12:55:10;143.32;;;132.18;;
16308;SDS011;8263;48.880;9.276;2023-02-15T12:57:36;138.77;;;128.43;;
16308;SDS011;8263;48.880;9.276;2023-02-15T13:00:03;139.38;;;128.95;;
16308;SDS011;8263;48.880;9.276;2023-02-15T13:02:33;137.52;;;127.43;;
16308;SDS011;8263;48.880;9.276;2023-02-15T13:05:04;140.50;;;129.65;;
16308;SDS011;8263;48.880;9.276;2023-02-15T13:07:34;141.10;;;130.45;;
16308;SDS011;8263;48.880;9.276;2023-02-15T13:10:01;138.23;;;127.88;;
16308;SDS011;8263;48.880;9.276;2023-02-15T13:12:28;140.75;;;130.07;;
16308;SDS011;8263;48.880;9.276;2023-02-15T13:14:57;139.10;;;128.43;;
16308;SDS011;8263;48.880;9.276;2023-02-15T13:17:25;140.02;;;129.35;;
16308;SDS011;8263;48.880;9.276;2023-02-15T13:19:54;139.57;;;129.27;;
16308;SDS011;8263;48.880;9.276;2023-02-15T13:22:22;139.35;;;128.85;;
16308;SDS011;8263;48.880;9.276;2023-02-15T13:24:53;140.80;;;130.07;;
16308;SDS011;8263;48.880;9.276;2023-02-15T13:27:22;137.35;;;126.85;;
16308;SDS011;8263;48.880;9.276;2023-02-15T13:29:50;139.10;;;128.68;;
16308;SDS011;8263;48.880;9.276;2023-02-15T13:32:22;137.65;;;127.18;;
16308;SDS011;8263;48.880;9.276;2023-02-15T13:34:51;137.65;;;127.32;;
16308;SDS011;8263;48.880;9.276;2023-02-15T13:37:21;137.73;;;127.13;;
16308;SDS011;8263;48.880;9.276;2023-02-15T13:39:51;138.73;;;128.07;;
16308;SDS011;8263;48.880;9.276;2023-02-15T13:42:20;138.05;;;127.80;;
16308;SDS011;8263;48.880;9.276;2023-02-15T13:44:58;136.95;;;126.60;;
16308;SDS011;8263;48.880;9.276;2023-02-15T13:47:30;136.63;;;126.50;;
16308;SDS011;8263;48.880;9.276;2023-02-15T13:50:05;135.55;;;125.45;;
16308;SDS011;8263;48.880;9.276;2023-02-15T13:52:37;137.00;;;126.85;;
16308;SDS011;8263;48.880;9.276;2023-02-15T13:55:23;135.27;;;125.25;;
16308;SDS011;8263;48.880;9.276;2023-02-15T13:57:58;137.10;;;126.88;;
16308;SDS011;8263;48.880;9.276;2023-02-15T14:00:29;137.13;;;126.88;;
16308;SDS011;8263;48.880;9.276;2023-02-15T14:05:45;136.15;;;125.68;;
16308;SDS011;8263;48.880;9.276;2023-02-15T14:08:14;134.75;;;124.93;;
16308;SDS011;8263;48.880;9.276;2023-02-15T14:10:51;137.52;;;127.28;;
16308;SDS011;8263;48.880;9.276;2023-02-15T14:13:34;132.32;;;122.55;;
16308;SDS011;8263;48.880;9.276;2023-02-15T14:16:09;132.82;;;123.20;;
16308;SDS011;8263;48.880;9.276;2023-02-15T14:18:39;134.85;;;124.85;;
16308;SDS011;8263;48.880;9.276;2023-02-15T14:21:09;133.40;;;123.72;;
16308;SDS011;8263;48.880;9.276;2023-02-15T14:23:39;134.20;;;124.28;;
16308;SDS011;8263;48.880;9.276;2023-02-15T14:26:09;134.88;;;125.03;;
16308;SDS011;8263;48.880;9.276;2023-02-15T14:28:42;134.63;;;124.93;;
16308;SDS011;8263;48.880;9.276;2023-02-15T14:31:11;132.80;;;123.10;;
16308;SDS011;8263;48.880;9.276;2023-02-15T14:33:38;133.88;;;124.10;;